Time;durP1;ratioP1;P1;durP2;ratioP2;P2;SDS_P1;SDS_P2;PMS_P1;PMS_P2;Temp;Humidity;BMP_temperature;BMP_pressure;BME280_temperature;BME280_humidity;BME280_pressure;Samples;Min_cycle;Max_cycle;Signal;HPM_P1;HPM_P2
2022/09/29 00:01:22;;;;;;;5.18;4.68;;;11.00;75.80;;;;;;4976078;28;20047;-45
2022/09/29 00:03:49;;;;;;;4.60;4.20;;;11.00;75.80;;;;;;4977442;28;20616;-45
2022/09/29 00:06:19;;;;;;;4.30;4.00;;;11.00;75.70;;;;;;4986447;28;20062;-45
2022/09/29 00:08:46;;;;;;;4.90;4.40;;;11.00;75.60;;;;;;4970765;28;20495;-46
2022/09/29 00:11:15;;;;;;;4.95;4.55;;;10.90;75.60;;;;;;4975056;28;20030;-47
2022/09/29 00:13:43;;;;;;;4.65;4.25;;;10.90;75.20;;;;;;4978836;28;20045;-46
2022/09/29 00:16:11;;;;;;;5.28;4.82;;;10.90;75.00;;;;;;4989213;28;20051;-45
2022/09/29 00:18:39;;;;;;;5.07;4.68;;;10.90;74.90;;;;;;4962233;28;20047;-45
2022/09/29 00:21:15;;;;;;;5.18;4.72;;;10.90;74.70;;;;;;4984445;28;20042;-45
2022/09/29 00:23:49;;;;;;;4.63;4.28;;;10.80;74.50;;;;;;4970266;28;20058;-45
2022/09/29 00:26:21;;;;;;;4.57;4.25;;;10.80;74.40;;;;;;4970429;28;20526;-47
2022/09/29 00:28:54;;;;;;;4.43;4.13;;;10.80;74.30;;;;;;4970889;28;20042;-47
2022/09/29 00:31:24;;;;;;;5.13;4.38;;;10.70;74.10;;;;;;4982630;28;20134;-45
2022/09/29 00:33:52;;;;;;;5.00;4.05;;;10.70;74.00;;;;;;4982111;28;20101;-44
2022/09/29 00:36:20;;;;;;;4.72;4.32;;;10.60;73.80;;;;;;4990725;28;20042;-46
2022/09/29 00:38:49;;;;;;;4.97;4.57;;;10.60;73.70;;;;;;4978891;28;20038;-45
2022/09/29 00:41:20;;;;;;;4.63;4.22;;;10.50;73.60;;;;;;4982836;28;20433;-46
2022/09/29 00:43:53;;;;;;;4.78;4.38;;;10.50;73.60;;;;;;4990271;28;20466;-47
2022/09/29 00:46:44;;;;;;;5.05;4.65;;;10.50;73.60;;;;;;4987120;28;20050;-47
2022/09/29 00:49:39;;;;;;;4.80;4.30;;;10.40;73.50;;;;;;4981454;28;20122;-45
2022/09/29 00:52:20;;;;;;;4.57;4.25;;;10.40;73.50;;;;;;4984021;28;20570;-46
2022/09/29 00:55:02;;;;;;;5.10;4.60;;;10.30;73.30;;;;;;4988255;28;20377;-45
2022/09/29 00:57:48;;;;;;;6.60;4.55;;;10.30;73.30;;;;;;4985410;28;20430;-49
2022/09/29 01:00:19;;;;;;;5.35;4.85;;;10.20;73.30;;;;;;4980260;28;20042;-46
2022/09/29 01:02:52;;;;;;;5.20;4.72;;;10.20;73.30;;;;;;4992496;28;20057;-45
2022/09/29 01:05:26;;;;;;;5.53;4.38;;;10.10;73.30;;;;;;4973413;28;20439;-48
2022/09/29 01:07:53;;;;;;;5.18;4.68;;;10.10;73.20;;;;;;4981333;28;20125;-45
2022/09/29 01:10:22;;;;;;;6.30;5.55;;;10.10;73.30;;;;;;4985891;28;20097;-45
2022/09/29 01:12:52;;;;;;;4.72;4.32;;;10.00;73.30;;;;;;4993099;28;20050;-45
2022/09/29 01:15:20;;;;;;;7.03;4.97;;;10.00;73.20;;;;;;4983560;28;20050;-44
2022/09/29 01:17:49;;;;;;;4.65;4.25;;;9.90;73.20;;;;;;4983673;28;20046;-45
2022/09/29 01:20:23;;;;;;;5.05;4.65;;;9.90;73.30;;;;;;4980981;28;20082;-44
2022/09/29 01:22:59;;;;;;;5.38;4.95;;;9.90;73.20;;;;;;4967171;28;20073;-44
2022/09/29 01:25:57;;;;;;;5.80;5.10;;;9.90;73.20;;;;;;4972218;28;20133;-45
2022/09/29 01:28:51;;;;;;;5.53;5.05;;;9.80;73.10;;;;;;4981159;28;20054;-47
2022/09/29 01:31:28;;;;;;;5.47;5.00;;;9.80;73.10;;;;;;4953508;29;20090;-45
2022/09/29 01:34:06;;;;;;;5.10;4.70;;;9.80;73.10;;;;;;4971990;28;20046;-45
2022/09/29 01:37:09;;;;;;;6.68;5.22;;;9.80;73.10;;;;;;4981741;28;20043;-44
2022/09/29 01:39:49;;;;;;;5.47;4.97;;;9.80;73.10;;;;;;4955264;28;20054;-45
2022/09/29 01:42:23;;;;;;;6.32;5.72;;;9.70;73.10;;;;;;4983261;28;20126;-45
2022/09/29 01:44:58;;;;;;;5.53;5.05;;;9.70;73.10;;;;;;4983108;28;20414;-49
2022/09/29 01:47:35;;;;;;;5.30;4.82;;;9.70;72.90;;;;;;4981566;28;20047;-48
2022/09/29 01:50:08;;;;;;;5.78;5.20;;;9.70;72.90;;;;;;4991400;28;20144;-48
2022/09/29 01:52:42;;;;;;;5.38;4.72;;;9.60;72.80;;;;;;4987324;28;20122;-45
2022/09/29 01:55:12;;;;;;;5.75;4.75;;;9.60;72.60;;;;;;4980280;28;20054;-45
2022/09/29 01:57:52;;;;;;;5.63;5.13;;;9.60;72.60;;;;;;4984520;28;20229;-47
2022/09/29 02:00:21;;;;;;;5.03;4.57;;;9.60;72.50;;;;;;4992980;28;20047;-43
2022/09/29 02:03:13;;;;;;;7.50;4.72;;;9.50;72.40;;;;;;4981282;28;20046;-45
2022/09/29 02:05:45;;;;;;;5.53;5.03;;;9.50;72.10;;;;;;4990446;28;20506;-45
2022/09/29 02:08:18;;;;;;;5.28;4.75;;;9.50;72.30;;;;;;4992573;28;20074;-45
2022/09/29 02:10:50;;;;;;;;;;;9.50;72.30;;;;;;4993143;28;20046;-47
2022/09/29 02:13:20;;;;;;;4.53;4.13;;;9.50;72.10;;;;;;4949847;28;20017;-46
2022/09/29 02:15:51;;;;;;;5.15;4.75;;;9.40;72.00;;;;;;4981165;28;20070;-47
2022/09/29 02:18:24;;;;;;;5.80;5.20;;;9.40;72.00;;;;;;4988234;28;20090;-44
2022/09/29 02:20:50;;;;;;;5.35;4.90;;;9.40;72.10;;;;;;4976710;28;20049;-45
2022/09/29 02:23:17;;;;;;;5.72;5.13;;;9.30;72.10;;;;;;4983701;28;20129;-45
2022/09/29 02:25:46;;;;;;;5.68;5.18;;;9.30;72.20;;;;;;4983722;28;20418;-47
2022/09/29 02:28:16;;;;;;;5.97;5.38;;;9.30;72.20;;;;;;4992434;28;20096;-46
2022/09/29 02:30:46;;;;;;;5.15;4.65;;;9.30;72.30;;;;;;4977522;28;20046;-49
2022/09/29 02:33:21;;;;;;;5.45;4.95;;;9.30;72.40;;;;;;4978105;28;20495;-45
2022/09/29 02:36:26;;;;;;;5.80;5.28;;;9.30;72.30;;;;;;4989771;28;20070;-44
2022/09/29 02:38:57;;;;;;;5.82;5.32;;;9.30;72.20;;;;;;4976282;28;20687;-45
2022/09/29 02:41:37;;;;;;;9.50;5.10;;;9.30;72.30;;;;;;4959358;28;20138;-46
2022/09/29 02:44:23;;;;;;;5.78;5.25;;;9.20;72.40;;;;;;4982477;28;20503;-45
2022/09/29 02:47:18;;;;;;;6.07;5.47;;;9.20;73.10;;;;;;4973186;28;20496;-44
2022/09/29 02:50:20;;;;;;;6.63;6.00;;;9.20;72.60;;;;;;4969726;28;20046;-46
2022/09/29 02:53:29;;;;;;;5.57;5.07;;;9.20;72.50;;;;;;4976567;28;20039;-47
2022/09/29 02:56:03;;;;;;;6.80;6.07;;;9.20;72.40;;;;;;4972430;28;20043;-45
2022/09/29 02:58:56;;;;;;;6.60;5.35;;;9.20;73.20;;;;;;4973952;28;20535;-46
2022/09/29 03:01:25;;;;;;;5.65;5.13;;;9.20;72.60;;;;;;4977353;28;20048;-45
2022/09/29 03:03:56;;;;;;;7.38;4.88;;;9.20;72.60;;;;;;4983320;28;20042;-45
2022/09/29 03:06:29;;;;;;;5.90;5.30;;;9.20;72.40;;;;;;4976569;28;20121;-46
2022/09/29 03:08:57;;;;;;;6.15;5.65;;;9.20;72.40;;;;;;4987425;28;20046;-45
2022/09/29 03:11:24;;;;;;;5.57;5.07;;;9.10;72.30;;;;;;4985041;28;20057;-45
2022/09/29 03:13:51;;;;;;;5.68;5.18;;;9.10;72.30;;;;;;4991043;28;20772;-46
2022/09/29 03:16:17;;;;;;;7.15;5.60;;;9.10;72.20;;;;;;4981499;28;20054;-45
2022/09/29 03:18:46;;;;;;;6.28;4.85;;;9.10;72.10;;;;;;4979118;28;20047;-46
2022/09/29 03:21:17;;;;;;;5.72;5.22;;;9.10;72.00;;;;;;4980256;28;20102;-45
2022/09/29 03:23:46;;;;;;;5.55;5.05;;;9.10;72.00;;;;;;4937613;29;20035;-48
2022/09/29 03:26:15;;;;;;;5.50;5.07;;;9.00;71.90;;;;;;4951768;28;20053;-47
2022/09/29 03:28:42;;;;;;;5.63;5.10;;;9.00;71.80;;;;;;4980453;28;20058;-46
2022/09/29 03:31:09;;;;;;;5.50;5.00;;;9.00;71.80;;;;;;4982478;28;20077;-45
2022/09/29 03:33:37;;;;;;;5.60;5.10;;;9.00;71.80;;;;;;4991038;28;20046;-45
2022/09/29 03:36:06;;;;;;;6.03;5.53;;;9.00;71.70;;;;;;4985678;28;20045;-45
2022/09/29 03:38:32;;;;;;;6.10;5.57;;;9.00;71.60;;;;;;4982833;28;20046;-45
2022/09/29 03:40:59;;;;;;;5.13;4.63;;;8.90;71.60;;;;;;4983291;28;20050;-47
2022/09/29 03:43:26;;;;;;;5.95;4.72;;;8.90;71.60;;;;;;4989679;28;20043;-45
2022/09/29 03:45:54;;;;;;;5.10;4.60;;;8.90;71.50;;;;;;4983042;28;20053;-48
2022/09/29 03:48:33;;;;;;;5.90;5.28;;;8.90;71.50;;;;;;4971305;28;20047;-44
2022/09/29 03:51:07;;;;;;;5.32;4.93;;;8.80;71.50;;;;;;4983147;28;20054;-45
2022/09/29 03:53:38;;;;;;;5.93;5.43;;;8.80;71.50;;;;;;4991061;28;20408;-45
2022/09/29 03:56:05;;;;;;;5.82;5.32;;;8.80;71.70;;;;;;4952256;28;20066;-45
2022/09/29 03:58:33;;;;;;;5.30;4.80;;;8.80;71.50;;;;;;4979508;28;20046;-46
2022/09/29 04:01:00;;;;;;;5.05;4.65;;;8.80;71.40;;;;;;4989389;28;20049;-45
2022/09/29 04:03:32;;;;;;;5.00;4.60;;;8.80;71.40;;;;;;4975190;28;20051;-45
2022/09/29 04:06:03;;;;;;;6.93;4.88;;;8.70;71.40;;;;;;4986768;28;20052;-44
2022/09/29 04:08:36;;;;;;;5.28;4.78;;;8.70;71.40;;;;;;4971265;28;20049;-48
2022/09/29 04:11:02;;;;;;;5.07;4.68;;;8.70;71.40;;;;;;4976873;28;20055;-45
2022/09/29 04:13:29;;;;;;;5.35;4.85;;;8.70;71.30;;;;;;4979977;28;20050;-44
2022/09/29 04:16:05;;;;;;;5.28;4.78;;;8.70;71.30;;;;;;4980501;28;20074;-45
2022/09/29 04:18:32;;;;;;;5.03;4.60;;;8.70;71.20;;;;;;4990422;28;20076;-45
2022/09/29 04:21:04;;;;;;;5.45;4.97;;;8.60;71.30;;;;;;4990143;28;20080;-45
2022/09/29 04:23:31;;;;;;;5.20;4.70;;;8.60;71.20;;;;;;4974173;28;20051;-44
2022/09/29 04:25:58;;;;;;;5.78;5.13;;;8.60;71.20;;;;;;4980435;28;20679;-43
2022/09/29 04:28:30;;;;;;;5.38;4.93;;;8.60;71.30;;;;;;4994605;28;20514;-45
2022/09/29 04:31:02;;;;;;;5.30;4.82;;;8.60;71.30;;;;;;4985096;28;20130;-45
2022/09/29 04:33:34;;;;;;;5.85;5.35;;;8.60;71.30;;;;;;4980602;28;20061;-46
2022/09/29 04:36:01;;;;;;;5.57;5.07;;;8.50;71.20;;;;;;4982853;28;20054;-44
2022/09/29 04:38:27;;;;;;;5.65;5.15;;;8.50;71.30;;;;;;4986000;28;20038;-45
2022/09/29 04:40:57;;;;;;;5.60;4.75;;;8.50;71.30;;;;;;4994590;28;20061;-45
2022/09/29 04:43:26;;;;;;;5.82;5.30;;;8.50;71.20;;;;;;4983864;28;20096;-46
2022/09/29 04:46:04;;;;;;;5.70;5.20;;;8.50;71.20;;;;;;4982696;28;20628;-46
2022/09/29 04:48:31;;;;;;;5.32;4.82;;;8.50;70.90;;;;;;4972584;28;20050;-48
2022/09/29 04:51:01;;;;;;;7.78;5.30;;;8.50;71.20;;;;;;4967774;28;20043;-45
2022/09/29 04:53:28;;;;;;;6.13;4.57;;;8.40;71.20;;;;;;4968878;28;20042;-45
2022/09/29 04:55:55;;;;;;;4.90;4.50;;;8.40;71.20;;;;;;4972298;28;20049;-45
2022/09/29 04:58:21;;;;;;;6.10;5.50;;;8.40;71.10;;;;;;4963839;28;20042;-45
2022/09/29 05:00:48;;;;;;;5.10;4.60;;;8.40;71.10;;;;;;4959125;28;20035;-45
2022/09/29 05:03:15;;;;;;;5.40;4.95;;;8.30;71.00;;;;;;4956603;28;20463;-47
2022/09/29 05:05:41;;;;;;;5.18;4.70;;;8.30;71.00;;;;;;4957759;28;20043;-44
2022/09/29 05:08:08;;;;;;;5.47;4.90;;;8.40;71.00;;;;;;4963994;28;20050;-45
2022/09/29 05:10:35;;;;;;;5.38;4.88;;;8.30;70.90;;;;;;4991785;23;20491;-45
2022/09/29 05:13:01;;;;;;;5.25;4.65;;;8.30;71.00;;;;;;4946176;29;20122;-46
2022/09/29 05:15:28;;;;;;;6.25;4.95;;;8.30;71.00;;;;;;4947561;28;20400;-45
2022/09/29 05:17:55;;;;;;;5.45;4.90;;;8.20;70.90;;;;;;4949822;28;20694;-45
2022/09/29 05:20:21;;;;;;;5.65;5.15;;;8.20;70.80;;;;;;4949028;28;20043;-45
2022/09/29 05:22:48;;;;;;;6.25;5.53;;;8.20;70.80;;;;;;4935660;29;20048;-45
2022/09/29 05:25:15;;;;;;;6.22;5.65;;;8.20;70.80;;;;;;4926763;29;20047;-46
2022/09/29 05:27:41;;;;;;;6.85;5.75;;;8.20;70.80;;;;;;4935779;29;20051;-45
2022/09/29 05:30:08;;;;;;;5.72;4.93;;;8.20;70.90;;;;;;4931719;29;20047;-46
2022/09/29 05:32:35;;;;;;;6.25;5.35;;;8.20;70.90;;;;;;4929790;29;20051;-44
2022/09/29 05:35:02;;;;;;;5.90;5.30;;;8.20;70.90;;;;;;4933505;29;20123;-47
2022/09/29 05:37:29;;;;;;;6.82;5.40;;;8.10;70.80;;;;;;4929715;29;20147;-43
2022/09/29 05:39:56;;;;;;;8.60;6.70;;;8.10;70.90;;;;;;4928866;29;20050;-45
2022/09/29 05:42:24;;;;;;;8.25;6.75;;;8.10;71.10;;;;;;4925811;29;20674;-45
2022/09/29 05:44:51;;;;;;;7.50;6.68;;;8.10;71.30;;;;;;4921201;29;20604;-45
2022/09/29 05:47:18;;;;;;;7.18;6.47;;;8.10;71.40;;;;;;4924645;29;20044;-47
2022/09/29 05:49:45;;;;;;;7.22;6.53;;;8.10;71.40;;;;;;4924596;29;20555;-45
2022/09/29 05:52:14;;;;;;;7.30;6.00;;;8.20;71.40;;;;;;4930300;29;20058;-47
2022/09/29 05:54:41;;;;;;;6.80;6.20;;;8.10;71.40;;;;;;4925965;29;20456;-44
2022/09/29 05:57:07;;;;;;;6.88;6.22;;;8.10;72.10;;;;;;4925925;29;20047;-45
2022/09/29 05:59:38;;;;;;;6.97;6.38;;;8.20;71.60;;;;;;4925870;29;20075;-45
2022/09/29 06:02:05;;;;;;;7.20;5.65;;;8.20;71.50;;;;;;4929633;29;20050;-45
2022/09/29 06:04:32;;;;;;;7.60;6.80;;;8.20;71.70;;;;;;4914277;29;20040;-45
2022/09/29 06:07:04;;;;;;;10.48;6.82;;;8.20;71.90;;;;;;4930361;29;20043;-45
2022/09/29 06:09:32;;;;;;;9.52;7.72;;;8.20;72.10;;;;;;4932612;29;20047;-46
2022/09/29 06:11:59;;;;;;;7.78;6.93;;;8.20;72.30;;;;;;4927729;29;20047;-46
2022/09/29 06:14:26;;;;;;;8.40;7.03;;;8.20;72.30;;;;;;4925877;29;20111;-46
2022/09/29 06:16:52;;;;;;;7.60;6.47;;;8.30;72.40;;;;;;4921002;29;20421;-45
2022/09/29 06:19:19;;;;;;;6.53;5.93;;;8.30;72.30;;;;;;4918023;29;20667;-46
2022/09/29 06:21:46;;;;;;;7.63;6.60;;;8.40;72.40;;;;;;4922606;29;20108;-45
2022/09/29 06:24:13;;;;;;;8.82;7.00;;;8.40;72.40;;;;;;4928942;29;20040;-46
2022/09/29 06:26:39;;;;;;;7.55;6.65;;;8.40;72.30;;;;;;4921505;29;20044;-49
2022/09/29 06:29:06;;;;;;;7.82;6.90;;;8.50;72.30;;;;;;4913849;29;20135;-48
2022/09/29 06:31:33;;;;;;;7.28;6.57;;;8.50;72.30;;;;;;4929766;29;20062;-47
2022/09/29 06:34:02;;;;;;;7.43;6.68;;;8.50;72.30;;;;;;4951554;29;20047;-50
2022/09/29 06:39:22;;;;;;;7.53;6.38;;;8.60;72.40;;;;;;4947156;29;20051;-49
2022/09/29 06:41:55;;;;;;;7.85;6.57;;;8.60;72.40;;;;;;4931758;29;20412;-48
2022/09/29 06:44:24;;;;;;;7.25;6.38;;;8.60;72.40;;;;;;4939944;28;20040;-49
2022/09/29 06:46:55;;;;;;;8.47;6.73;;;8.60;72.50;;;;;;4928495;29;20040;-48
2022/09/29 06:49:23;;;;;;;7.50;6.60;;;8.70;72.60;;;;;;4935427;28;20047;-47
2022/09/29 06:51:50;;;;;;;7.93;6.97;;;8.70;72.70;;;;;;4949250;29;20506;-48
2022/09/29 06:54:19;;;;;;;7.90;7.15;;;8.70;72.60;;;;;;4951638;29;20055;-49
2022/09/29 06:56:48;;;;;;;8.10;7.40;;;8.70;72.70;;;;;;4930624;29;20062;-47
2022/09/29 06:59:15;;;;;;;7.95;6.93;;;8.80;72.80;;;;;;4932378;29;20048;-49
2022/09/29 07:01:42;;;;;;;8.43;7.38;;;8.80;73.50;;;;;;4942059;29;20419;-50
2022/09/29 07:04:10;;;;;;;8.48;6.90;;;8.80;72.90;;;;;;4952597;29;20094;-48
2022/09/29 07:06:37;;;;;;;8.40;7.60;;;8.90;73.20;;;;;;4947206;29;20047;-48
2022/09/29 07:09:04;;;;;;;10.43;7.75;;;8.90;73.30;;;;;;4923523;29;20680;-49
2022/09/29 07:11:30;;;;;;;8.00;7.22;;;9.00;73.40;;;;;;4925176;29;20087;-48
2022/09/29 07:13:57;;;;;;;10.35;9.35;;;9.00;73.60;;;;;;4922373;29;20044;-48
2022/09/29 07:16:23;;;;;;;10.90;8.80;;;9.00;73.80;;;;;;4930034;29;20047;-48
2022/09/29 07:18:51;;;;;;;11.10;10.00;;;9.10;74.10;;;;;;4942165;28;20128;-49
2022/09/29 07:21:18;;;;;;;10.38;9.38;;;9.10;74.30;;;;;;4926356;29;20039;-48
2022/09/29 07:23:45;;;;;;;12.13;10.32;;;9.20;74.70;;;;;;4932781;29;20622;-49
2022/09/29 07:26:15;;;;;;;10.43;9.40;;;9.20;75.00;;;;;;4921767;29;20040;-48
2022/09/29 07:28:42;;;;;;;12.73;10.48;;;9.30;75.30;;;;;;4913071;29;20046;-48
2022/09/29 07:31:12;;;;;;;11.18;9.85;;;9.30;75.40;;;;;;4925790;29;20515;-47
2022/09/29 07:33:46;;;;;;;11.35;10.15;;;9.40;75.60;;;;;;4926615;29;20119;-49
2022/09/29 07:36:15;;;;;;;11.57;10.38;;;9.50;75.90;;;;;;4928767;29;20067;-50
2022/09/29 07:38:44;;;;;;;12.00;10.70;;;9.60;75.80;;;;;;4919270;29;20436;-47
2022/09/29 07:41:12;;;;;;;12.52;10.60;;;9.60;75.90;;;;;;4928939;29;20040;-49
2022/09/29 07:43:39;;;;;;;14.60;11.57;;;9.70;76.00;;;;;;4923360;29;20052;-48
2022/09/29 07:46:06;;;;;;;13.23;10.85;;;9.80;76.10;;;;;;4921954;29;20043;-47
2022/09/29 07:48:35;;;;;;;13.50;10.63;;;9.80;76.20;;;;;;4951805;29;20051;-49
2022/09/29 07:51:14;;;;;;;11.27;10.10;;;9.90;76.20;;;;;;4951411;29;20466;-49
2022/09/29 07:53:41;;;;;;;11.40;10.15;;;10.00;76.40;;;;;;4950753;29;20043;-50
2022/09/29 07:56:14;;;;;;;12.15;10.57;;;10.00;76.10;;;;;;4948198;29;20047;-48
2022/09/29 07:58:41;;;;;;;12.40;10.02;;;10.10;76.40;;;;;;4926637;29;20044;-48
2022/09/29 08:01:11;;;;;;;10.65;9.55;;;10.20;76.40;;;;;;4933719;29;20134;-50
2022/09/29 08:03:49;;;;;;;14.00;10.57;;;10.20;76.60;;;;;;4928436;29;20043;-47
2022/09/29 08:06:18;;;;;;;13.63;9.23;;;10.20;77.30;;;;;;4926479;29;20128;-51
2022/09/29 08:08:46;;;;;;;9.05;7.95;;;10.30;76.80;;;;;;4925002;29;20575;-48
2022/09/29 08:11:27;;;;;;;9.32;8.32;;;10.40;77.00;;;;;;4931282;29;20511;-48
2022/09/29 08:13:59;;;;;;;10.93;8.85;;;10.50;77.10;;;;;;4934764;29;20047;-47
2022/09/29 08:16:26;;;;;;;10.68;8.30;;;10.50;77.10;;;;;;4933640;29;20073;-52
2022/09/29 08:18:52;;;;;;;12.20;9.30;;;10.60;77.10;;;;;;4928845;29;20047;-48
2022/09/29 08:21:19;;;;;;;9.93;8.32;;;10.60;77.20;;;;;;4928318;29;20054;-48
2022/09/29 08:23:46;;;;;;;9.68;8.43;;;10.70;77.20;;;;;;4928634;29;20460;-47
2022/09/29 08:26:16;;;;;;;11.55;9.48;;;10.70;77.10;;;;;;4926730;29;20048;-47
2022/09/29 08:28:43;;;;;;;12.57;8.63;;;10.80;77.30;;;;;;4926237;29;20044;-50
2022/09/29 08:31:20;;;;;;;10.45;8.98;;;10.90;77.50;;;;;;4934309;29;20090;-47
2022/09/29 08:33:51;;;;;;;12.68;8.85;;;10.90;77.70;;;;;;4955103;29;20082;-49
2022/09/29 08:36:19;;;;;;;12.45;9.63;;;11.00;77.60;;;;;;4939847;29;20427;-48
2022/09/29 08:38:48;;;;;;;13.38;9.25;;;11.00;77.60;;;;;;4928971;29;20068;-50
2022/09/29 08:41:33;;;;;;;10.98;7.97;;;11.10;77.50;;;;;;4920827;29;20497;-49
2022/09/29 08:44:23;;;;;;;12.07;8.68;;;11.20;78.00;;;;;;4918855;29;20044;-51
2022/09/29 08:47:28;;;;;;;10.43;8.50;;;11.20;78.30;;;;;;4936195;29;20051;-48
2022/09/29 08:50:52;;;;;;;10.48;8.70;;;11.30;77.90;;;;;;4934374;29;20143;-48
2022/09/29 08:53:21;;;;;;;12.68;8.52;;;11.40;78.10;;;;;;4930965;29;20047;-52
2022/09/29 08:56:12;;;;;;;12.52;8.70;;;11.50;77.40;;;;;;4924897;29;20107;-48
2022/09/29 08:58:39;;;;;;;13.27;8.05;;;11.60;77.50;;;;;;4927204;29;20040;-48
2022/09/29 09:01:28;;;;;;;9.45;7.75;;;11.60;77.20;;;;;;4928556;29;20039;-48
2022/09/29 09:04:03;;;;;;;10.32;7.95;;;11.70;77.40;;;;;;4925040;29;20035;-48
2022/09/29 09:06:50;;;;;;;8.82;7.53;;;11.80;77.30;;;;;;4926298;29;20040;-49
2022/09/29 09:09:33;;;;;;;12.82;8.40;;;11.80;77.00;;;;;;4915329;29;20066;-48
2022/09/29 09:12:32;;;;;;;9.52;7.38;;;11.90;77.30;;;;;;4926310;29;20127;-49
2022/09/29 09:15:20;;;;;;;11.82;7.65;;;12.00;77.00;;;;;;4927002;29;20094;-48
2022/09/29 09:18:49;;;;;;;10.85;6.97;;;12.10;76.50;;;;;;4935373;29;20050;-50
2022/09/29 09:21:27;;;;;;;9.98;6.82;;;12.20;76.60;;;;;;4892419;29;20071;-48
2022/09/29 09:24:21;;;;;;;11.15;6.88;;;12.30;76.20;;;;;;4934206;29;20040;-48
2022/09/29 09:26:51;;;;;;;9.07;6.68;;;12.30;76.10;;;;;;4919127;29;20488;-48
2022/09/29 09:29:27;;;;;;;11.98;8.20;;;12.40;76.00;;;;;;4920425;29;20044;-49
2022/09/29 09:32:04;;;;;;;10.75;7.20;;;12.40;76.00;;;;;;4930810;29;20083;-47
2022/09/29 09:34:39;;;;;;;12.07;6.95;;;12.50;76.10;;;;;;4928245;29;20047;-50
2022/09/29 09:37:19;;;;;;;9.45;7.07;;;12.60;76.10;;;;;;4924200;29;20044;-49
2022/09/29 09:39:48;;;;;;;9.05;6.57;;;12.70;76.00;;;;;;4916838;29;20110;-49
2022/09/29 09:42:23;;;;;;;9.18;6.93;;;12.70;75.40;;;;;;4934676;29;20043;-50
2022/09/29 09:44:57;;;;;;;9.80;6.68;;;12.80;74.70;;;;;;4926004;29;20048;-48
2022/09/29 09:47:41;;;;;;;9.20;7.85;;;12.80;75.60;;;;;;4943969;29;20500;-48
2022/09/29 09:50:21;;;;;;;8.02;6.05;;;12.90;74.50;;;;;;4932385;29;20051;-48
2022/09/29 09:52:52;;;;;;;10.38;5.80;;;13.00;74.00;;;;;;4930269;29;20055;-50
2022/09/29 09:55:24;;;;;;;11.95;6.45;;;13.00;74.10;;;;;;4933415;29;20419;-49
2022/09/29 09:58:08;;;;;;;8.23;6.53;;;13.10;74.30;;;;;;4933182;29;20075;-52
2022/09/29 10:00:38;;;;;;;7.80;6.57;;;13.10;73.50;;;;;;4929767;29;20051;-51
2022/09/29 10:03:07;;;;;;;12.02;6.72;;;13.20;73.40;;;;;;4926636;29;20413;-48
2022/09/29 10:05:41;;;;;;;7.95;5.35;;;13.20;73.40;;;;;;4933350;29;20054;-49
2022/09/29 10:08:28;;;;;;;11.05;7.30;;;13.30;72.90;;;;;;4927716;29;20464;-50
2022/09/29 10:10:57;;;;;;;8.25;6.32;;;13.40;72.70;;;;;;4927803;29;20042;-49
2022/09/29 10:13:27;;;;;;;11.93;6.50;;;13.40;73.00;;;;;;4932671;29;20044;-51
2022/09/29 10:16:09;;;;;;;7.88;5.47;;;13.40;72.60;;;;;;4930822;29;20055;-50
2022/09/29 10:18:45;;;;;;;10.73;6.65;;;13.50;72.30;;;;;;4944240;29;20051;-51
2022/09/29 10:21:35;;;;;;;7.57;5.18;;;13.60;72.40;;;;;;4926656;29;20055;-49
2022/09/29 10:24:05;;;;;;;7.13;5.38;;;13.70;72.20;;;;;;4924013;29;20044;-48
2022/09/29 10:26:38;;;;;;;7.88;4.97;;;13.70;71.80;;;;;;4932130;29;20508;-49
2022/09/29 10:29:37;;;;;;;7.53;5.07;;;13.70;72.00;;;;;;4926382;29;20050;-48
2022/09/29 10:32:20;;;;;;;6.38;4.68;;;13.80;70.60;;;;;;4933229;29;20035;-49
2022/09/29 10:34:53;;;;;;;7.07;4.25;;;13.80;71.00;;;;;;4911197;29;20039;-50
2022/09/29 10:37:34;;;;;;;6.65;4.60;;;13.90;70.50;;;;;;4920755;29;20050;-48
2022/09/29 10:40:21;;;;;;;5.57;3.10;;;13.90;70.50;;;;;;4929860;29;20504;-49
2022/09/29 10:42:50;;;;;;;5.38;2.95;;;14.00;70.80;;;;;;4925829;29;20054;-48
2022/09/29 10:45:22;;;;;;;3.63;3.15;;;14.00;69.40;;;;;;4927046;29;20092;-50
2022/09/29 10:48:08;;;;;;;5.45;3.35;;;14.10;68.30;;;;;;4930478;29;20122;-51
2022/09/29 10:50:36;;;;;;;4.50;3.70;;;14.20;67.60;;;;;;4928947;29;20559;-47
2022/09/29 10:53:37;;;;;;;5.13;3.20;;;14.30;69.30;;;;;;4922851;29;20645;-50
2022/09/29 10:56:36;;;;;;;5.82;3.80;;;14.30;67.70;;;;;;4922399;29;20445;-47
2022/09/29 10:59:03;;;;;;;6.32;3.30;;;14.50;68.00;;;;;;4920964;29;20508;-47
2022/09/29 11:01:42;;;;;;;6.70;3.90;;;14.50;69.00;;;;;;4940384;29;20039;-50
2022/09/29 11:04:20;;;;;;;5.50;3.60;;;14.60;68.70;;;;;;4951690;29;20047;-47
2022/09/29 11:06:48;;;;;;;5.43;4.05;;;14.80;67.60;;;;;;4929957;29;20111;-50
2022/09/29 11:09:15;;;;;;;7.82;3.22;;;14.90;67.60;;;;;;4943746;29;20051;-46
2022/09/29 11:11:48;;;;;;;6.35;3.80;;;15.00;68.70;;;;;;4922457;29;20107;-50
2022/09/29 11:14:36;;;;;;;4.10;2.85;;;15.10;66.70;;;;;;4942524;29;20039;-51
2022/09/29 11:17:30;;;;;;;3.00;2.65;;;15.10;65.50;;;;;;4930441;29;20048;-50
2022/09/29 11:20:02;;;;;;;5.85;2.22;;;15.20;64.00;;;;;;4930704;29;20131;-47
2022/09/29 11:23:05;;;;;;;3.08;1.75;;;15.30;64.50;;;;;;4927460;29;20044;-46
2022/09/29 11:25:51;;;;;;;2.85;2.30;;;15.30;63.00;;;;;;4927079;29;20074;-50
2022/09/29 11:28:55;;;;;;;4.50;2.92;;;15.40;62.90;;;;;;4930220;29;20476;-50
2022/09/29 11:31:31;;;;;;;4.28;2.10;;;15.40;63.00;;;;;;4939637;29;20055;-45
2022/09/29 11:34:25;;;;;;;4.47;2.08;;;15.40;63.90;;;;;;4946352;29;20054;-51
2022/09/29 11:37:01;;;;;;;4.70;2.45;;;15.40;63.00;;;;;;4928005;29;20778;-47
2022/09/29 11:39:49;;;;;;;7.53;2.38;;;15.40;63.60;;;;;;4925108;29;20075;-50
2022/09/29 11:42:57;;;;;;;3.25;2.38;;;15.40;63.60;;;;;;4931881;29;20107;-50
2022/09/29 11:45:35;;;;;;;2.58;1.95;;;15.40;62.90;;;;;;4929173;29;20047;-50
2022/09/29 11:48:21;;;;;;;2.05;1.85;;;15.40;62.50;;;;;;4929793;29;20048;-49
2022/09/29 11:51:15;;;;;;;3.20;2.05;;;15.40;62.80;;;;;;4932762;29;20377;-50
2022/09/29 11:54:20;;;;;;;2.80;1.95;;;15.40;62.40;;;;;;4926676;29;20408;-48
2022/09/29 11:56:57;;;;;;;3.80;1.80;;;15.40;63.10;;;;;;4926905;29;20040;-50
2022/09/29 11:59:59;;;;;;;2.28;1.42;;;15.50;63.50;;;;;;4932713;29;20060;-49
2022/09/29 12:02:49;;;;;;;2.35;1.88;;;15.50;63.70;;;;;;4898943;29;20044;-49
2022/09/29 12:05:30;;;;;;;4.28;2.08;;;15.50;64.10;;;;;;4932625;29;20063;-50
2022/09/29 12:07:59;;;;;;;2.05;1.70;;;15.50;64.40;;;;;;4954570;23;20039;-49
2022/09/29 12:10:55;;;;;;;3.00;1.20;;;15.60;64.10;;;;;;4978828;28;20109;-46
2022/09/29 12:13:35;;;;;;;2.78;1.45;;;15.70;63.50;;;;;;4960744;28;20122;-46
2022/09/29 12:16:20;;;;;;;1.77;1.27;;;15.90;62.80;;;;;;4988485;28;20038;-47
2022/09/29 12:18:55;;;;;;;2.90;1.17;;;16.00;62.10;;;;;;4987393;28;20050;-48
2022/09/29 12:21:34;;;;;;;1.83;1.27;;;16.10;62.10;;;;;;4988387;28;20565;-45
2022/09/29 12:24:05;;;;;;;2.63;1.63;;;16.30;61.80;;;;;;4989264;28;20042;-46
2022/09/29 12:26:33;;;;;;;2.15;1.20;;;16.40;62.20;;;;;;4978264;28;20038;-47
2022/09/29 12:29:31;;;;;;;2.85;1.58;;;16.60;62.20;;;;;;4986085;28;20042;-45
2022/09/29 12:32:01;;;;;;;2.53;1.00;;;16.80;61.00;;;;;;4978717;28;20057;-46
2022/09/29 12:34:50;;;;;;;1.17;0.95;;;17.10;61.40;;;;;;4988987;28;20054;-46
2022/09/29 12:37:26;;;;;;;2.03;1.25;;;17.30;59.00;;;;;;4988095;28;20406;-46
2022/09/29 12:40:15;;;;;;;3.17;2.15;;;17.50;58.00;;;;;;4985633;28;20042;-47
2022/09/29 12:43:01;;;;;;;3.90;1.70;;;17.60;57.90;;;;;;4984138;28;20062;-47
2022/09/29 12:45:40;;;;;;;4.70;1.85;;;17.70;58.60;;;;;;4982915;28;20045;-46
2022/09/29 12:48:13;;;;;;;7.32;3.05;;;17.80;58.20;;;;;;4981818;28;20038;-48
2022/09/29 12:50:48;;;;;;;3.65;2.92;;;17.90;58.10;;;;;;4993733;28;20069;-45
2022/09/29 12:53:23;;;;;;;4.57;2.95;;;17.90;57.40;;;;;;4992574;28;20050;-48
2022/09/29 12:56:03;;;;;;;4.97;3.30;;;17.90;57.50;;;;;;4993093;28;20057;-47
2022/09/29 12:58:44;;;;;;;7.00;4.15;;;17.80;57.90;;;;;;4991442;28;20053;-48
2022/09/29 13:01:26;;;;;;;5.07;3.90;;;17.90;57.80;;;;;;4989272;28;20039;-49
2022/09/29 13:04:31;;;;;;;4.70;3.33;;;17.90;57.30;;;;;;4992048;28;20056;-48
2022/09/29 13:07:28;;;;;;;9.27;4.55;;;17.90;57.70;;;;;;4993059;28;20044;-48
2022/09/29 13:10:24;;;;;;;5.43;4.47;;;17.90;57.10;;;;;;4992441;28;20057;-45
2022/09/29 13:13:09;;;;;;;5.35;4.25;;;17.90;57.30;;;;;;4988275;28;20050;-46
2022/09/29 13:15:42;;;;;;;5.00;4.22;;;17.90;56.00;;;;;;4992229;28;20038;-47
2022/09/29 13:18:29;;;;;;;5.60;4.05;;;17.90;57.00;;;;;;4992791;28;20054;-47
2022/09/29 13:21:10;;;;;;;6.57;4.40;;;17.80;57.50;;;;;;4991769;28;20035;-49
2022/09/29 13:23:59;;;;;;;4.57;4.15;;;17.80;56.70;;;;;;4991567;28;20057;-46
2022/09/29 13:26:50;;;;;;;5.72;3.95;;;17.80;57.10;;;;;;4992697;28;20049;-47
2022/09/29 13:29:21;;;;;;;5.30;3.63;;;17.80;57.20;;;;;;4986274;28;20066;-46
2022/09/29 13:31:50;;;;;;;4.65;3.55;;;17.90;57.80;;;;;;4992248;28;20053;-47
2022/09/29 13:34:37;;;;;;;6.60;3.40;;;17.90;58.10;;;;;;4989730;28;20049;-45